Káhira, Egypt

15:44 EET 3. Prosinec 2016 (GMT +0200)
Cairo International | | Change Station

Výška 243 ft 30.11 °N, 31.41 °E | Updated 14 minutes ago

Clear
Jasno
70 °F
Pocit jako 70 °F
S
5
Vítr proměnlivý Vítr od západní

Dnes
Vysoké -- | Nízké -- °F
--% Možnost srážek
Včera
Vysoké -- | Nízké -- °F
Precip. -- inčů
Tlak 30.21 inčů
Viditelnost -9999.0 mílí
Zataženo
Rosný bod 43 °F
Vlhkost 38%
Dešťové srážky 0.00 inčů
Sněhová pokrývka Není k dispozici
6:34 AM 4:53 PM
Dorůstající srpek, 15% visible
METAR HECA 031330Z 27004KT CAVOK 21/06 Q1023 NOSIG
Tlak 30.21 inčů
Viditelnost -9999.0 mílí
Zataženo
Rosný bod 43 °F
Vlhkost 38%
Dešťové srážky 0.00 inčů
Sněhová pokrývka Není k dispozici
6:34 AM 4:53 PM
Dorůstající srpek, 15% visible
METAR HECA 031330Z 27004KT CAVOK 21/06 Q1023 NOSIG

10-Day Weather Forecast

No radar image for this location.
×

Almanac

Astronomie

Dec. 03, 2016 Východ Západ
Skutečný čas
Občanský soumrak
Námořní soumrak
Astronomický soumrak
Měsíc
Délka denního světla
Délka dne
Tomorrow will be .
, % of the Moon is Illuminated

Dnešní extrémy

Nejvyšší hodnoty ve státě Nejnižší hodnoty ve státě

Community

WunderPhotos

Upload Photos

1,955,446 snímků staženo!

WunderBlog® & News

Nearby

Kvalita ovzduší

  Kvalita ovzduší Index kvality ovzduší Polutant
Not available.

Výška sněhu

Station Hloubka Nadmořská výška

Seizmická činnost

Město Distance Mag. Čas & datum
Minimální zobrazený rozsah je 2.5.

Pobřežní teplota vody

Lokalita Teplota

Stations

Poblíž povětrnostní stanice

Lokace stanice Tepl. Ochlazování větrem Rosný bod Vlhkost Vítr Precip. Výška Čas hlášení Typ